Map

Track Data

SID SEASON NUMBER BASIN SUBBASIN NAME ISO_TIME NATURE LAT LON WMO_WIND WMO_PRES WMO_AGENCY TRACK_TYPE DIST2LAND LANDFALL IFLAG USA_AGENCY USA_ATCF_ID USA_LAT USA_LON USA_RECORD USA_STATUS USA_WIND USA_PRES USA_SSHS USA_R34_NE USA_R34_SE USA_R34_SW USA_R34_NW USA_R50_NE USA_R50_SE USA_R50_SW USA_R50_NW USA_R64_NE USA_R64_SE USA_R64_SW USA_R64_NW USA_POCI USA_ROCI USA_RMW USA_EYE TOKYO_LAT TOKYO_LON TOKYO_GRADE TOKYO_WIND TOKYO_PRES TOKYO_R50_DIR TOKYO_R50_LONG TOKYO_R50_SHORT TOKYO_R30_DIR TOKYO_R30_LONG TOKYO_R30_SHORT TOKYO_LAND CMA_LAT CMA_LON CMA_CAT CMA_WIND CMA_PRES HKO_LAT HKO_LON HKO_CAT HKO_WIND HKO_PRES NEWDELHI_LAT NEWDELHI_LON NEWDELHI_GRADE NEWDELHI_WIND NEWDELHI_PRES NEWDELHI_CI NEWDELHI_DP NEWDELHI_POCI REUNION_LAT REUNION_LON REUNION_TYPE REUNION_WIND REUNION_PRES REUNION_TNUM REUNION_CI REUNION_RMW REUNION_R34_NE REUNION_R34_SE REUNION_R34_SW REUNION_R34_NW REUNION_R50_NE REUNION_R50_SE REUNION_R50_SW REUNION_R50_NW REUNION_R64_NE REUNION_R64_SE REUNION_R64_SW REUNION_R64_NW BOM_LAT BOM_LON BOM_TYPE BOM_WIND BOM_PRES BOM_TNUM BOM_CI BOM_RMW BOM_R34_NE BOM_R34_SE BOM_R34_SW BOM_R34_NW BOM_R50_NE BOM_R50_SE BOM_R50_SW BOM_R50_NW BOM_R64_NE BOM_R64_SE BOM_R64_SW BOM_R64_NW BOM_ROCI BOM_POCI BOM_EYE BOM_POS_METHOD BOM_PRES_METHOD NADI_LAT NADI_LON NADI_CAT NADI_WIND NADI_PRES WELLINGTON_LAT WELLINGTON_LON WELLINGTON_WIND WELLINGTON_PRES DS824_LAT DS824_LON DS824_STAGE DS824_WIND DS824_PRES TD9636_LAT TD9636_LON TD9636_STAGE TD9636_WIND TD9636_PRES TD9635_LAT TD9635_LON TD9635_WIND TD9635_PRES TD9635_ROCI NEUMANN_LAT NEUMANN_LON NEUMANN_CLASS NEUMANN_WIND NEUMANN_PRES MLC_LAT MLC_LON MLC_CLASS MLC_WIND MLC_PRES USA_GUST BOM_GUST BOM_GUST_PER REUNION_GUST REUNION_GUST_PER USA_SEAHGT USA_SEARAD_NE USA_SEARAD_SE USA_SEARAD_SW USA_SEARAD_NW STORM_SPEED STORM_DIR
1934031S17140 1934 11 SP EA NOT_NAMED 1934-01-30 23:00:00 NR -16.7500 139.500 985 bom main 46 46 ______O___O___ -1 -16.6000 139.600 985 4 -16.9000 139.400 7 24 115
1934031S17140 1934 11 SP EA NOT_NAMED 1934-01-31 00:00:00 TS -16.9227 139.880 main 70 35 ______P___P___ -1 -16.9004 139.962 -16.9000 140.000 TC 55 985 -16.9563 139.739 7 23 118
1934031S17140 1934 11 SP EA NOT_NAMED 1934-01-31 02:00:00 NR -17.2883 140.558 bom main 30 0 ______O___P___ -1 -17.5000 140.700 -17.0766 140.415 7 23 119
1934031S17140 1934 11 SP EA NOT_NAMED 1934-01-31 03:00:00 NR -17.4723 140.916 main 0 0 ______P___P___ -1 -17.7996 141.081 -17.1451 140.751 7 24 119
1934031S17140 1934 11 SP EA NOT_NAMED 1934-01-31 06:00:00 NR -18.0549 142.005 main 0 0 ______P___P___ -1 -18.6980 142.268 -17.4118 141.741 7 24 121
1934031S17140 1934 11 SP EA NOT_NAMED 1934-01-31 09:00:00 NR -18.7074 143.096 main 0 0 ______P___P___ -1 -19.5956 143.499 -17.8192 142.694 7 25 124
1934031S17140 1934 11 SP EA NOT_NAMED 1934-01-31 11:00:00 NR -19.1968 143.815 main 0 0 ______P___O___ -1 -20.1937 144.329 -18.2000 143.300 7 25 127
1934031S17140 1934 11 SP EA NOT_NAMED 1934-01-31 12:00:00 NR -19.4610 144.168 main 0 0 ______P___P___ -1 -20.4927 144.743 -18.4294 143.593 7 26 131
1934031S17140 1934 11 SP EA NOT_NAMED 1934-01-31 15:00:00 NR -20.3243 145.208 main 0 0 ______P___P___ -1 -21.3899 145.969 -19.2587 144.448 7 26 133
1934031S17140 1934 11 SP EA NOT_NAMED 1934-01-31 18:00:00 NR -21.2703 146.219 main 0 0 ______P___P___ -1 -22.2892 147.144 -20.2513 145.294 7 27 136
1934031S17140 1934 11 SP EA NOT_NAMED 1934-01-31 21:00:00 NR -22.2692 147.205 main 0 0 ______P___P___ -1 -23.1931 148.236 -21.3452 146.174 7 27 138
1934031S17140 1934 11 SP EA NOT_NAMED 1934-01-31 23:00:00 NR -22.9500 147.850 bom main 0 0 ______O___O___ -1 -23.8000 148.900 -22.1000 146.800 7 27 138
1934031S17140 1934 11 SP EA NOT_NAMED 1934-02-01 00:00:00 NR -23.2808 148.186 main 0 0 ______P___P___ -1 -24.0972 149.208 -22.4644 147.163 7 27 137
1934031S17140 1934 11 SP EA NOT_NAMED 1934-02-01 03:00:00 NR -24.2942 149.192 main 0 0 ______P___P___ -1 -24.9939 150.066 -23.5946 148.317 7 27 139
1934031S17140 1934 11 SP EA NOT_NAMED 1934-02-01 06:00:00 NR -25.3243 150.165 main 0 0 ______P___P___ -1 -25.9024 150.829 -24.7462 149.502 7 27 141
1934031S17140 1934 11 SP EA NOT_NAMED 1934-02-01 09:00:00 NR -26.3526 151.065 main 0 0 ______P___P___ -1 -26.8282 151.502 -25.8770 150.628 7 26 143
1934031S17140 1934 11 SP EA NOT_NAMED 1934-02-01 11:00:00 NR -27.0287 151.603 main 0 0 ______P___O___ -1 -27.4575 151.906 -26.6000 151.300 7 25 145
1934031S17140 1934 11 SP EA NOT_NAMED 1934-02-01 12:00:00 NR -27.3538 151.859 main 0 0 ______P___P___ -1 -27.7763 152.095 -26.9314 151.622 7 23 147
1934031S17140 1934 11 SP EA NOT_NAMED 1934-02-01 15:00:00 NR -28.3186 152.555 main 0 0 ______P___P___ -1 -28.7512 152.613 -27.8860 152.497 7 22 150
1934031S17140 1934 11 SP EA NOT_NAMED 1934-02-01 18:00:00 NR -29.2846 153.133 main 0 0 ______P___P___ -1 -29.7572 153.064 -28.8121 153.203 7 21 152
1934031S17140 1934 11 SP EA NOT_NAMED 1934-02-01 19:00:00 NR -29.5408 153.311 bom main 0 0 ______O___P___ -1 -30.1000 153.200 -29.1213 153.395 7 18 152
1934031S17140 1934 11 SP EA NOT_NAMED 1934-02-01 21:00:00 NR -30.0983 153.620 main 36 36 ______P___P___ -1 -30.7962 153.456 -29.7494 153.702 7 18 156
1934031S17140 1934 11 SP EA NOT_NAMED 1934-02-01 23:00:00 NR -30.6200 153.860 bom main 83 83 ______O___O___ -1 -31.5000 153.700 -30.4000 153.900 7 15 155
1934031S17140 1934 11 SP EA NOT_NAMED 1934-02-02 00:00:00 NR -30.7613 153.973 main 91 85 __________P___ -1 -30.7613 153.973 7 19 174
1934031S17140 1934 11 SP EA NOT_NAMED 1934-02-02 03:00:00 NR -31.8865 154.012 main 113 113 __________P___ -1 -31.8865 154.012 7 23 183
1934031S17140 1934 11 SP EA NOT_NAMED 1934-02-02 06:00:00 NR -33.0274 153.829 main 138 138 __________P___ -1 -33.0274 153.829 7 23 191
1934031S17140 1934 11 SP EA NOT_NAMED 1934-02-02 09:00:00 NR -34.1238 153.486 main 196 190 __________P___ -1 -34.1238 153.486 7 22 196
1934031S17140 1934 11 SP EA NOT_NAMED 1934-02-02 11:00:00 NR -34.8000 153.200 main 195 192 __________O___ -1 -34.8000 153.200 7 21 200
1934031S17140 1934 11 SP EA NOT_NAMED 1934-02-02 12:00:00 NR -35.1156 153.047 main 197 175 __________P___ -1 -35.1156 153.047 7 19 204
1934031S17140 1934 11 SP EA NOT_NAMED 1934-02-02 15:00:00 NR -35.9788 152.557 main 185 177 __________P___ -1 -35.9788 152.557 7 18 207
1934031S17140 1934 11 SP EA NOT_NAMED 1934-02-02 18:00:00 NR -36.7444 152.031 main 175 123 __________P___ -1 -36.7444 152.031 7 17 210
1934031S17140 1934 11 SP EA NOT_NAMED 1934-02-02 21:00:00 NR -37.4479 151.478 main 123 106 __________P___ -1 -37.4479 151.478 7 16 213
1934031S17140 1934 11 SP EA NOT_NAMED 1934-02-02 23:00:00 NR -37.9000 151.100 main 106 __________O___ -1 -37.9000 151.100 7 16 214

Digital Typhoon Data and Search

About IBTrACS Database

This database is a web-friendly format of International Best Track Archive for Climate Stewardship (IBTrACS), a global best track data archive curated by NOAA dating back to 1842.

Updated: 2021-10-25